createdAt,value
2019-03-03T00:00:43.432Z,18.60
2019-03-03T00:03:12.263Z,20.80
2019-03-03T00:05:41.102Z,20.13
2019-03-03T00:08:09.939Z,20.13
2019-03-03T00:10:38.791Z,20.20
2019-03-03T00:13:07.550Z,20.93
2019-03-03T00:15:36.329Z,19.70
2019-03-03T00:18:05.215Z,19.13
2019-03-03T00:20:34.039Z,18.73
2019-03-03T00:23:02.892Z,19.57
2019-03-03T00:25:31.654Z,18.80
2019-03-03T00:28:00.493Z,18.77
2019-03-03T00:30:29.269Z,18.17
2019-03-03T00:32:58.104Z,18.63
2019-03-03T00:35:26.878Z,17.77
2019-03-03T00:38:00.041Z,19.17
2019-03-03T00:40:39.563Z,18.50
2019-03-03T00:43:18.860Z,18.23
2019-03-03T00:46:01.396Z,18.87
2019-03-03T00:48:34.464Z,18.27
2019-03-03T00:51:07.589Z,19.60
2019-03-03T00:53:37.989Z,23.73
2019-03-03T00:56:11.344Z,25.13
2019-03-03T00:58:44.668Z,29.93
2019-03-03T01:01:29.971Z,29.60
2019-03-03T01:04:16.278Z,26.17
2019-03-03T01:06:58.549Z,22.43
2019-03-03T01:09:32.600Z,19.80
2019-03-03T01:12:21.121Z,19.17
2019-03-03T01:14:51.519Z,21.60
2019-03-03T01:17:21.995Z,20.43
2019-03-03T01:20:07.617Z,24.57
2019-03-03T01:22:41.044Z,21.10
2019-03-03T01:25:09.878Z,19.10
2019-03-03T01:27:38.720Z,19.97
2019-03-03T01:30:10.415Z,18.10
2019-03-03T01:32:39.258Z,19.03
2019-03-03T01:35:11.919Z,19.10
2019-03-03T01:37:40.686Z,19.07
2019-03-03T01:40:12.630Z,19.50
2019-03-03T01:42:41.452Z,19.17
2019-03-03T01:45:12.555Z,18.93
2019-03-03T01:47:41.391Z,19.43
2019-03-03T01:50:12.057Z,18.60
2019-03-03T01:52:40.885Z,20.33
2019-03-03T01:55:11.141Z,23.80
2019-03-03T01:57:39.963Z,21.93
2019-03-03T02:00:20.623Z,21.00
2019-03-03T02:02:49.599Z,21.37
2019-03-03T02:05:18.759Z,22.37
2019-03-03T02:07:47.798Z,22.50
2019-03-03T02:10:18.877Z,22.30
2019-03-03T02:12:47.741Z,22.03
2019-03-03T02:15:16.572Z,21.17
2019-03-03T02:17:45.403Z,22.10
2019-03-03T02:20:14.347Z,20.27
2019-03-03T02:22:43.117Z,21.53
2019-03-03T02:25:13.546Z,21.27
2019-03-03T02:27:42.483Z,20.10
2019-03-03T02:30:20.088Z,20.03
2019-03-03T02:32:49.315Z,22.20
2019-03-03T02:35:18.146Z,21.53
2019-03-03T02:37:47.116Z,20.83
2019-03-03T02:40:17.955Z,19.50
2019-03-03T02:42:46.737Z,18.37
2019-03-03T02:45:16.373Z,19.40
2019-03-03T02:47:45.255Z,19.53
2019-03-03T02:50:15.368Z,19.67
2019-03-03T02:52:44.194Z,18.60
2019-03-03T02:55:17.316Z,19.10
2019-03-03T02:57:46.177Z,18.13
2019-03-03T03:00:26.820Z,19.50
2019-03-03T03:03:00.237Z,18.63
2019-03-03T03:05:42.738Z,19.50
2019-03-03T03:08:13.154Z,20.40
2019-03-03T03:10:49.508Z,20.67
2019-03-03T03:13:22.828Z,20.17
2019-03-03T03:15:53.251Z,19.23
2019-03-03T03:18:32.710Z,19.20
2019-03-03T03:21:21.267Z,19.30
2019-03-03T03:24:07.715Z,19.97
2019-03-03T03:26:38.117Z,20.83
2019-03-03T03:29:24.744Z,18.73
2019-03-03T03:32:03.970Z,19.40
2019-03-03T03:34:37.406Z,18.40
2019-03-03T03:37:13.640Z,19.33
2019-03-03T03:39:44.051Z,19.43
2019-03-03T03:42:14.454Z,19.57
2019-03-03T03:44:59.984Z,19.30
2019-03-03T03:47:39.346Z,18.43
2019-03-03T03:50:10.588Z,18.20
2019-03-03T03:52:58.882Z,19.73
2019-03-03T03:55:35.950Z,18.60
2019-03-03T03:58:06.655Z,19.10
2019-03-03T04:00:40.037Z,19.10
2019-03-03T04:03:25.353Z,19.57
2019-03-03T04:06:11.778Z,19.37
2019-03-03T04:08:48.283Z,21.03
2019-03-03T04:11:18.700Z,21.97
2019-03-03T04:13:55.094Z,20.37
2019-03-03T04:16:25.509Z,22.13
2019-03-03T04:18:58.647Z,22.47
2019-03-03T04:21:31.800Z,22.73
2019-03-03T04:24:14.326Z,20.60
2019-03-03T04:26:44.775Z,21.73
2019-03-03T04:29:18.032Z,20.80
2019-03-03T04:31:54.605Z,21.30
2019-03-03T04:34:31.048Z,20.97
2019-03-03T04:37:04.157Z,20.50
2019-03-03T04:39:34.589Z,21.07
2019-03-03T04:42:07.924Z,21.40
2019-03-03T04:44:41.168Z,20.10
2019-03-03T04:47:14.581Z,20.40
2019-03-03T04:49:44.982Z,21.30
2019-03-03T04:52:21.118Z,20.63
2019-03-03T04:54:51.527Z,20.53
2019-03-03T04:57:21.934Z,19.57
2019-03-03T04:59:58.025Z,19.73
2019-03-03T05:02:34.102Z,19.33
2019-03-03T05:05:04.509Z,19.60
2019-03-03T05:07:46.890Z,20.07
2019-03-03T05:10:20.269Z,19.53
2019-03-03T05:12:53.692Z,20.37
2019-03-03T05:15:24.124Z,19.50
2019-03-03T05:17:57.518Z,20.60
2019-03-03T05:20:26.364Z,18.67
2019-03-03T05:22:55.141Z,19.23
2019-03-03T05:25:23.900Z,20.07
2019-03-03T05:27:52.671Z,20.00
2019-03-03T05:30:21.431Z,19.47
2019-03-03T05:32:50.203Z,18.77
2019-03-03T05:35:19.031Z,20.50
2019-03-03T05:37:47.873Z,20.17
2019-03-03T05:40:16.661Z,19.63
2019-03-03T05:42:45.528Z,20.03
2019-03-03T05:45:14.286Z,20.67
2019-03-03T05:47:43.138Z,19.13
2019-03-03T05:50:12.030Z,19.97
2019-03-03T05:52:40.910Z,20.43
2019-03-03T05:55:09.760Z,20.03
2019-03-03T05:57:38.528Z,23.33
2019-03-03T06:00:12.319Z,33.80
2019-03-03T06:02:41.138Z,26.80
2019-03-03T06:05:11.631Z,21.10
2019-03-03T06:07:40.457Z,21.20
2019-03-03T06:10:09.899Z,21.23
2019-03-03T06:12:38.733Z,23.97
2019-03-03T06:15:13.233Z,22.37
2019-03-03T06:17:42.130Z,28.43
2019-03-03T06:20:12.328Z,25.47
2019-03-03T06:22:41.166Z,27.60
2019-03-03T06:25:10.706Z,21.77
2019-03-03T06:27:39.489Z,21.03
2019-03-03T06:30:13.916Z,21.37
2019-03-03T06:32:42.744Z,29.00
2019-03-03T06:35:12.780Z,34.97
2019-03-03T06:37:41.544Z,28.80
2019-03-03T06:40:11.434Z,21.43
2019-03-03T06:42:40.296Z,29.77
2019-03-03T06:45:11.824Z,29.57
2019-03-03T06:47:40.664Z,31.90
2019-03-03T06:50:11.876Z,24.87
2019-03-03T06:52:40.711Z,25.43
2019-03-03T06:55:09.846Z,24.30
2019-03-03T06:57:39.218Z,23.02
2019-03-03T07:00:11.757Z,23.83
2019-03-03T07:02:41.274Z,23.62
2019-03-03T07:05:11.398Z,19.32
2019-03-03T07:07:40.851Z,20.02
2019-03-03T07:10:12.290Z,18.42
2019-03-03T07:12:42.540Z,23.50
2019-03-03T07:15:14.193Z,20.57
2019-03-03T07:17:43.618Z,24.60
2019-03-03T07:20:13.769Z,22.60
2019-03-03T07:22:43.424Z,22.37
2019-03-03T07:25:14.256Z,23.75
2019-03-03T07:27:43.693Z,27.60
2019-03-03T07:30:17.265Z,23.77
2019-03-03T07:32:54.117Z,27.13
2019-03-03T07:35:23.475Z,25.35
2019-03-03T07:37:52.954Z,26.73
2019-03-03T07:40:22.324Z,24.85
2019-03-03T07:42:51.705Z,21.17
2019-03-03T07:45:21.146Z,25.08
2019-03-03T07:47:50.598Z,23.32
2019-03-03T07:50:20.039Z,24.27
2019-03-03T07:52:49.415Z,24.55
2019-03-03T07:55:18.866Z,21.33
2019-03-03T07:57:48.300Z,24.77
2019-03-03T08:00:17.756Z,23.57
2019-03-03T08:02:47.175Z,22.32
2019-03-03T08:05:16.547Z,23.20
2019-03-03T08:07:45.930Z,25.45
2019-03-03T08:10:16.083Z,27.17
2019-03-03T08:12:45.531Z,22.50
2019-03-03T08:15:18.339Z,22.73
2019-03-03T08:17:47.786Z,25.68
2019-03-03T08:20:17.233Z,25.77
2019-03-03T08:22:46.658Z,26.75
2019-03-03T08:25:16.091Z,25.82
2019-03-03T08:27:45.476Z,24.23
2019-03-03T08:30:16.881Z,23.45
2019-03-03T08:32:46.335Z,25.40
2019-03-03T08:35:20.911Z,28.65
2019-03-03T08:37:50.337Z,27.20
2019-03-03T08:40:19.682Z,29.60
2019-03-03T08:43:06.672Z,30.70
2019-03-03T08:45:37.676Z,28.62
2019-03-03T08:48:08.672Z,29.72
2019-03-03T08:50:54.555Z,34.60
2019-03-03T08:53:34.720Z,31.17
2019-03-03T08:56:08.670Z,28.27
2019-03-03T08:58:40.079Z,28.70
2019-03-03T09:01:14.111Z,28.60
2019-03-03T09:03:45.114Z,29.55
2019-03-03T09:06:16.111Z,25.95
2019-03-03T09:08:50.099Z,26.05
2019-03-03T09:11:35.967Z,26.87
2019-03-03T09:14:09.886Z,25.77
2019-03-03T09:16:43.611Z,32.08
2019-03-03T09:19:20.590Z,28.80
2019-03-03T09:22:04.736Z,33.35
2019-03-03T09:24:35.869Z,27.15
2019-03-03T09:27:23.169Z,27.67
2019-03-03T09:29:54.156Z,29.18
2019-03-03T09:32:28.148Z,29.60
2019-03-03T09:35:11.246Z,27.15
2019-03-03T09:37:45.001Z,28.10
2019-03-03T09:40:21.566Z,29.87
2019-03-03T09:42:55.289Z,29.92
2019-03-03T09:45:42.502Z,30.20
2019-03-03T09:48:16.288Z,34.55
2019-03-03T09:50:53.382Z,33.55
2019-03-03T09:53:39.487Z,35.48
2019-03-03T09:56:26.453Z,33.70
2019-03-03T09:59:13.396Z,35.00
2019-03-03T10:01:47.164Z,33.95
2019-03-03T10:04:33.049Z,34.83
2019-03-03T10:07:04.662Z,35.20
2019-03-03T10:09:50.519Z,34.00
2019-03-03T10:12:37.704Z,35.17
2019-03-03T10:15:23.192Z,36.13
2019-03-03T10:18:06.061Z,34.60
2019-03-03T10:20:48.580Z,34.63
2019-03-03T10:23:22.384Z,33.20
2019-03-03T10:26:05.273Z,34.55
2019-03-03T10:28:39.349Z,33.83
2019-03-03T10:31:10.362Z,35.33
2019-03-03T10:33:44.107Z,34.90
2019-03-03T10:36:21.323Z,37.30
2019-03-03T10:39:04.145Z,35.90
2019-03-03T10:41:38.216Z,33.45
2019-03-03T10:44:15.126Z,34.67
2019-03-03T10:47:02.076Z,35.90
2019-03-03T10:49:48.186Z,36.70
2019-03-03T10:52:35.398Z,36.93
2019-03-03T10:55:08.016Z,35.70
2019-03-03T10:57:39.032Z,35.17
2019-03-03T11:00:21.277Z,37.42
2019-03-03T11:03:08.244Z,37.30
2019-03-03T11:05:51.369Z,37.88
2019-03-03T11:08:25.316Z,35.83
2019-03-03T11:10:59.305Z,38.50
2019-03-03T11:13:30.318Z,37.38
2019-03-03T11:16:04.308Z,37.15
2019-03-03T11:18:41.404Z,36.93
2019-03-03T11:21:18.487Z,35.88
2019-03-03T11:23:49.486Z,36.83
2019-03-03T11:26:35.655Z,36.13
2019-03-03T11:29:07.081Z,36.00
2019-03-03T11:31:38.100Z,37.98
2019-03-03T11:34:17.913Z,55.38
2019-03-03T11:36:54.993Z,38.33
2019-03-03T11:39:26.214Z,40.88
2019-03-03T11:42:02.946Z,34.38
2019-03-03T11:44:33.956Z,36.10
2019-03-03T11:47:17.217Z,37.35
2019-03-03T11:49:50.947Z,38.33
2019-03-03T11:52:21.955Z,39.13
2019-03-03T11:54:55.673Z,36.75
2019-03-03T11:57:32.653Z,38.58
2019-03-03T12:00:10.042Z,37.73
2019-03-03T12:02:53.798Z,33.53
2019-03-03T12:05:37.618Z,52.65
2019-03-03T12:08:17.422Z,35.20
2019-03-03T12:10:48.436Z,39.15
2019-03-03T12:13:28.436Z,39.40
2019-03-03T12:15:59.446Z,41.50
2019-03-03T12:18:30.511Z,37.73
2019-03-03T12:21:04.506Z,37.15
2019-03-03T12:23:35.548Z,37.05
2019-03-03T12:26:12.277Z,36.25
2019-03-03T12:28:59.261Z,64.20
2019-03-03T12:31:39.210Z,49.90
2019-03-03T12:34:10.222Z,39.78
2019-03-03T12:36:41.229Z,36.68
2019-03-03T12:39:14.962Z,36.30
2019-03-03T12:41:54.414Z,33.35
2019-03-03T12:44:25.434Z,33.28
2019-03-03T12:46:59.400Z,33.55
2019-03-03T12:49:33.423Z,40.83
2019-03-03T12:52:07.266Z,33.35
2019-03-03T12:54:47.420Z,33.88
2019-03-03T12:57:30.338Z,35.08
2019-03-03T13:00:16.421Z,36.03
2019-03-03T13:02:50.115Z,32.55
2019-03-03T13:05:33.070Z,32.63
2019-03-03T13:08:06.836Z,32.78
2019-03-03T13:10:37.855Z,33.80
2019-03-03T13:13:14.978Z,34.67
2019-03-03T13:15:46.002Z,34.05
2019-03-03T13:18:33.258Z,46.77
2019-03-03T13:21:16.069Z,35.05
2019-03-03T13:23:53.179Z,37.00
2019-03-03T13:26:33.214Z,34.80
2019-03-03T13:29:06.942Z,31.68
2019-03-03T13:31:37.961Z,33.35
2019-03-03T13:34:14.680Z,33.15
2019-03-03T13:37:00.583Z,31.40
2019-03-03T13:39:31.596Z,32.83
2019-03-03T13:42:02.618Z,33.98
2019-03-03T13:44:32.051Z,32.35
2019-03-03T13:47:01.488Z,37.60
2019-03-03T13:49:30.853Z,39.10
2019-03-03T13:52:00.029Z,40.10
2019-03-03T13:54:29.446Z,39.23
2019-03-03T13:56:59.022Z,32.85
2019-03-03T13:59:28.446Z,33.63
2019-03-03T14:01:57.880Z,35.25
2019-03-03T14:04:27.245Z,34.13
2019-03-03T14:06:56.717Z,32.60
2019-03-03T14:09:26.068Z,29.77
2019-03-03T14:11:55.513Z,34.60
2019-03-03T14:14:24.955Z,37.88
2019-03-03T14:16:54.407Z,37.95
2019-03-03T14:19:23.822Z,53.13
2019-03-03T14:21:53.278Z,44.15
2019-03-03T14:24:22.629Z,51.58
2019-03-03T14:26:52.056Z,52.13
2019-03-03T14:29:21.499Z,46.73
2019-03-03T14:31:50.944Z,37.67
2019-03-03T14:34:20.385Z,31.68
2019-03-03T14:36:49.743Z,31.35
2019-03-03T14:39:19.182Z,32.15
2019-03-03T14:41:48.611Z,31.55
2019-03-03T14:44:18.000Z,31.35
2019-03-03T14:46:47.441Z,30.95
2019-03-03T14:49:16.797Z,31.17
2019-03-03T14:51:46.161Z,32.05
2019-03-03T14:54:15.540Z,31.48
2019-03-03T14:56:44.972Z,33.67
2019-03-03T14:59:14.410Z,35.08
2019-03-03T15:01:43.844Z,26.60
2019-03-03T15:04:13.296Z,35.98
2019-03-03T15:06:42.724Z,31.42
2019-03-03T15:09:13.736Z,35.08
2019-03-03T15:11:43.172Z,31.10
2019-03-03T15:14:12.724Z,24.05
2019-03-03T15:16:42.169Z,23.25
2019-03-03T15:19:11.609Z,22.67
2019-03-03T15:21:41.038Z,21.33
2019-03-03T15:24:10.467Z,24.30
2019-03-03T15:26:39.900Z,25.15
2019-03-03T15:29:09.345Z,56.25
2019-03-03T15:31:38.801Z,26.50
2019-03-03T15:34:09.814Z,28.52
2019-03-03T15:36:39.290Z,30.10
2019-03-03T15:39:09.359Z,30.32
2019-03-03T15:41:38.784Z,28.15
2019-03-03T15:44:08.242Z,25.25
2019-03-03T15:46:37.436Z,27.60
2019-03-03T15:49:06.882Z,22.35
2019-03-03T15:51:36.326Z,23.55
2019-03-03T15:54:05.777Z,24.98
2019-03-03T15:56:35.417Z,24.57
2019-03-03T15:59:04.849Z,25.88
2019-03-03T16:01:34.298Z,24.52
2019-03-03T16:04:03.750Z,23.02
2019-03-03T16:06:33.215Z,22.75
2019-03-03T16:09:04.238Z,22.77
2019-03-03T16:11:33.627Z,121.20
2019-03-03T16:14:03.009Z,51.33
2019-03-03T16:16:32.455Z,55.43
2019-03-03T16:19:01.900Z,42.90
2019-03-03T16:21:31.286Z,45.67
2019-03-03T16:24:00.644Z,32.98
2019-03-03T16:26:30.098Z,42.88
2019-03-03T16:28:59.527Z,66.17
2019-03-03T16:31:29.030Z,52.80
2019-03-03T16:33:58.465Z,63.80
2019-03-03T16:36:27.917Z,60.40
2019-03-03T16:38:57.454Z,56.02
2019-03-03T16:41:26.840Z,43.95
2019-03-03T16:43:56.348Z,49.33
2019-03-03T16:46:25.217Z,63.25
2019-03-03T16:48:54.588Z,42.20
2019-03-03T16:51:24.037Z,97.75
2019-03-03T16:53:53.493Z,131.60
2019-03-03T16:56:22.869Z,111.42
2019-03-03T16:58:52.313Z,49.60
2019-03-03T17:01:21.772Z,49.25
2019-03-03T17:03:51.219Z,45.58
2019-03-03T17:06:20.595Z,41.73
2019-03-03T17:08:50.019Z,43.15
2019-03-03T17:11:19.466Z,33.60
2019-03-03T17:13:48.900Z,30.25
2019-03-03T17:16:18.327Z,31.00
2019-03-03T17:18:47.767Z,33.78
2019-03-03T17:21:17.204Z,41.48
2019-03-03T17:23:46.644Z,42.55
2019-03-03T17:26:16.107Z,45.43
2019-03-03T17:28:45.548Z,47.27
2019-03-03T17:31:14.997Z,53.15
2019-03-03T17:33:44.384Z,59.35
2019-03-03T17:36:13.829Z,64.03
2019-03-03T17:38:43.300Z,61.15
2019-03-03T17:41:12.768Z,64.42
2019-03-03T17:43:42.203Z,58.15
2019-03-03T17:46:13.173Z,58.55
2019-03-03T17:48:42.600Z,54.58
2019-03-03T17:51:12.070Z,57.15
2019-03-03T17:53:41.531Z,53.75
2019-03-03T17:56:10.999Z,51.13
2019-03-03T17:58:40.522Z,49.40
2019-03-03T18:01:09.988Z,43.58
2019-03-03T18:03:39.487Z,36.88
2019-03-03T18:06:08.966Z,30.12
2019-03-03T18:08:38.400Z,30.23
2019-03-03T18:11:07.838Z,31.62
2019-03-03T18:13:37.284Z,31.05
2019-03-03T18:16:06.754Z,35.50
2019-03-03T18:18:36.149Z,39.98
2019-03-03T18:21:05.613Z,39.58
2019-03-03T18:23:35.055Z,38.28
2019-03-03T18:26:04.521Z,38.48
2019-03-03T18:28:33.952Z,37.80
2019-03-03T18:31:03.453Z,37.85
2019-03-03T18:33:32.914Z,58.98
2019-03-03T18:36:02.341Z,51.80
2019-03-03T18:38:32.207Z,47.40
2019-03-03T18:41:01.658Z,39.88
2019-03-03T18:43:31.121Z,44.98
2019-03-03T18:46:00.591Z,40.43
2019-03-03T18:48:30.028Z,39.30
2019-03-03T18:50:59.472Z,40.12
2019-03-03T18:53:29.009Z,39.50
2019-03-03T18:55:58.462Z,48.80
2019-03-03T18:58:27.915Z,45.38
2019-03-03T19:00:57.348Z,45.73
2019-03-03T19:03:26.801Z,43.30
2019-03-03T19:05:56.270Z,38.33
2019-03-03T19:08:25.717Z,38.48
2019-03-03T19:10:55.260Z,38.28
2019-03-03T19:13:24.696Z,39.18
2019-03-03T19:15:55.896Z,40.17
2019-03-03T19:18:25.359Z,39.03
2019-03-03T19:20:54.801Z,39.98
2019-03-03T19:23:24.233Z,41.20
2019-03-03T19:25:53.673Z,42.53
2019-03-03T19:28:23.114Z,42.73
2019-03-03T19:30:52.579Z,43.10
2019-03-03T19:33:33.783Z,41.30
2019-03-03T19:36:03.261Z,41.70
2019-03-03T19:38:32.700Z,43.25
2019-03-03T19:41:02.131Z,41.00
2019-03-03T19:43:31.598Z,39.27
2019-03-03T19:46:03.274Z,39.05
2019-03-03T19:48:32.754Z,39.88
2019-03-03T19:51:03.335Z,39.23
2019-03-03T19:53:32.856Z,39.95
2019-03-03T19:56:02.304Z,34.83
2019-03-03T19:58:31.738Z,35.03
2019-03-03T20:01:01.123Z,34.13
2019-03-03T20:03:30.570Z,34.92
2019-03-03T20:05:59.413Z,35.90
2019-03-03T20:08:28.860Z,37.73
2019-03-03T20:10:58.326Z,39.20
2019-03-03T20:13:27.804Z,41.75
2019-03-03T20:15:57.259Z,36.98
2019-03-03T20:18:26.702Z,36.08
2019-03-03T20:20:56.143Z,37.03
2019-03-03T20:23:25.565Z,33.38
2019-03-03T20:25:55.000Z,31.30
2019-03-03T20:28:24.440Z,31.85
2019-03-03T20:30:53.339Z,31.13
2019-03-03T20:33:22.804Z,33.58
2019-03-03T20:35:51.596Z,33.57
2019-03-03T20:38:21.052Z,48.15
2019-03-03T20:40:49.897Z,38.45
2019-03-03T20:43:18.750Z,34.10
2019-03-03T20:45:47.599Z,36.17
2019-03-03T20:48:16.437Z,36.57
2019-03-03T20:50:45.297Z,36.83
2019-03-03T20:53:14.128Z,35.13
2019-03-03T20:55:42.978Z,33.83
2019-03-03T20:58:11.865Z,34.33
2019-03-03T21:00:40.753Z,34.40
2019-03-03T21:03:09.597Z,34.23
2019-03-03T21:05:38.435Z,36.30
2019-03-03T21:08:07.285Z,37.63
2019-03-03T21:10:36.128Z,37.67
2019-03-03T21:13:04.975Z,39.47
2019-03-03T21:15:33.742Z,37.70
2019-03-03T21:18:02.595Z,39.10
2019-03-03T21:20:31.443Z,37.30
2019-03-03T21:23:00.279Z,38.07
2019-03-03T21:25:29.135Z,38.90
2019-03-03T21:27:57.978Z,44.37
2019-03-03T21:30:29.980Z,48.80
2019-03-03T21:32:58.832Z,46.07
2019-03-03T21:35:27.675Z,42.10
2019-03-03T21:37:58.790Z,40.47
2019-03-03T21:40:27.921Z,39.23
2019-03-03T21:42:56.775Z,38.90
2019-03-03T21:45:29.609Z,38.27
2019-03-03T21:47:58.516Z,36.20
2019-03-03T21:50:31.026Z,47.93
2019-03-03T21:52:59.858Z,47.20
2019-03-03T21:55:28.645Z,39.07
2019-03-03T21:57:57.481Z,34.67
2019-03-03T22:00:42.854Z,35.20
2019-03-03T22:03:11.681Z,34.93
2019-03-03T22:05:40.547Z,34.13
2019-03-03T22:08:09.360Z,35.70
2019-03-03T22:10:38.126Z,37.37
2019-03-03T22:13:11.915Z,36.30
2019-03-03T22:15:40.755Z,33.00
2019-03-03T22:18:09.593Z,33.53
2019-03-03T22:20:38.440Z,36.23
2019-03-03T22:23:07.378Z,37.30
2019-03-03T22:25:36.164Z,34.17
2019-03-03T22:28:04.918Z,32.70
2019-03-03T22:30:33.772Z,31.00
2019-03-03T22:33:02.596Z,31.77
2019-03-03T22:35:31.442Z,32.70
2019-03-03T22:38:00.271Z,32.70
2019-03-03T22:40:29.112Z,32.37
2019-03-03T22:42:57.871Z,32.03
2019-03-03T22:45:26.657Z,31.77
2019-03-03T22:47:55.489Z,31.83
2019-03-03T22:50:24.274Z,33.93
2019-03-03T22:52:53.043Z,36.93
2019-03-03T22:55:22.189Z,36.97
2019-03-03T22:57:50.958Z,31.60
2019-03-03T23:00:48.078Z,32.83
2019-03-03T23:03:23.167Z,33.77
2019-03-03T23:06:16.952Z,30.03
2019-03-03T23:09:06.701Z,29.87
2019-03-03T23:11:53.153Z,30.43
2019-03-03T23:14:33.574Z,30.33
2019-03-03T23:17:26.027Z,32.27
2019-03-03T23:20:03.345Z,31.53
2019-03-03T23:22:50.186Z,30.13
2019-03-03T23:25:36.804Z,31.03
2019-03-03T23:28:07.396Z,29.43
2019-03-03T23:30:36.299Z,29.87
2019-03-03T23:33:05.071Z,29.90
2019-03-03T23:35:33.912Z,28.83
2019-03-03T23:38:02.750Z,27.67
2019-03-03T23:40:31.587Z,27.40
2019-03-03T23:43:00.346Z,28.17
2019-03-03T23:45:29.136Z,26.43
2019-03-03T23:47:57.974Z,30.50
2019-03-03T23:50:26.855Z,30.83
2019-03-03T23:52:55.642Z,29.07
2019-03-03T23:55:24.411Z,29.53
2019-03-03T23:57:53.195Z,30.07
